createdAt,value
2023-05-14T00:00:05.078Z,98033.00
2023-05-14T00:02:32.881Z,98033.00
2023-05-14T00:05:01.908Z,98037.00
2023-05-14T00:07:30.909Z,98027.00
2023-05-14T00:09:58.737Z,98025.00
2023-05-14T00:12:26.720Z,98025.00
2023-05-14T00:14:54.814Z,98017.00
2023-05-14T00:17:22.474Z,98007.00
2023-05-14T00:19:50.242Z,98010.00
2023-05-14T00:22:19.276Z,98006.00
2023-05-14T00:24:46.940Z,98002.00
2023-05-14T00:27:14.810Z,97998.00
2023-05-14T00:29:42.491Z,97993.00
2023-05-14T00:32:10.156Z,97994.00
2023-05-14T00:34:37.770Z,97995.00
2023-05-14T00:37:05.679Z,97995.00
2023-05-14T00:39:35.791Z,97988.00
2023-05-14T00:42:03.464Z,97992.00
2023-05-14T00:44:31.131Z,97986.00
2023-05-14T00:46:59.586Z,97987.00
2023-05-14T00:49:28.582Z,97984.00
2023-05-14T00:51:59.011Z,97985.00
2023-05-14T00:54:26.872Z,97982.00
2023-05-14T00:56:56.287Z,97978.00
2023-05-14T00:59:23.919Z,97979.00
2023-05-14T01:01:51.672Z,97992.00
2023-05-14T01:04:19.830Z,97986.00
2023-05-14T01:07:05.320Z,97991.00
2023-05-14T01:09:41.174Z,97994.00
2023-05-14T01:12:20.291Z,97999.00
2023-05-14T01:14:57.960Z,97999.00
2023-05-14T01:17:29.910Z,98002.00
2023-05-14T01:19:58.001Z,98000.00
2023-05-14T01:22:27.047Z,98005.00
2023-05-14T01:24:54.668Z,97997.00
2023-05-14T01:27:30.803Z,98007.00
2023-05-14T01:30:04.498Z,98004.00
2023-05-14T01:32:34.197Z,98000.00
2023-05-14T01:35:02.774Z,97999.00
2023-05-14T01:37:33.514Z,97993.00
2023-05-14T01:40:01.614Z,97997.00
2023-05-14T01:42:29.931Z,97993.00
2023-05-14T01:44:57.657Z,97997.00
2023-05-14T01:47:25.637Z,97998.00
2023-05-14T01:49:53.313Z,97998.00
2023-05-14T01:52:21.293Z,97995.00
2023-05-14T01:54:50.361Z,97991.00
2023-05-14T01:57:17.956Z,97997.00
2023-05-14T01:59:45.729Z,97993.00
2023-05-14T02:02:13.390Z,97992.00
2023-05-14T02:04:41.073Z,97997.00
2023-05-14T02:07:08.710Z,97997.00
2023-05-14T02:09:36.321Z,97986.00
2023-05-14T02:12:05.679Z,97984.00
2023-05-14T02:14:33.295Z,97986.00
2023-05-14T02:17:00.983Z,97986.00
2023-05-14T02:19:28.648Z,97974.00
2023-05-14T02:21:56.301Z,97975.00
2023-05-14T02:24:24.002Z,97974.00
2023-05-14T02:26:51.617Z,97974.00
2023-05-14T02:29:20.615Z,97967.00
2023-05-14T02:31:48.319Z,97967.00
2023-05-14T02:34:16.246Z,97969.00
2023-05-14T02:36:43.971Z,97966.00
2023-05-14T02:39:11.722Z,97968.00
2023-05-14T02:41:39.364Z,97966.00
2023-05-14T02:44:07.005Z,97975.00
2023-05-14T02:46:36.249Z,97974.00
2023-05-14T02:49:04.005Z,97972.00
2023-05-14T02:51:31.684Z,97970.00
2023-05-14T02:53:59.346Z,97970.00
2023-05-14T02:56:27.389Z,97972.00
2023-05-14T02:58:55.042Z,97967.00
2023-05-14T03:01:23.194Z,97967.00
2023-05-14T03:03:52.590Z,97965.00
2023-05-14T03:06:20.236Z,97966.00
2023-05-14T03:08:47.881Z,97964.00
2023-05-14T03:11:15.522Z,97970.00
2023-05-14T03:13:43.162Z,97969.00
2023-05-14T03:16:11.372Z,97964.00
2023-05-14T03:18:39.477Z,97960.00
2023-05-14T03:21:09.357Z,97965.00
2023-05-14T03:23:37.029Z,97961.00
2023-05-14T03:26:04.961Z,97964.00
2023-05-14T03:28:32.601Z,97959.00
2023-05-14T03:31:00.328Z,97954.00
2023-05-14T03:33:28.077Z,97956.00
2023-05-14T03:35:55.752Z,97955.00
2023-05-14T03:38:24.807Z,97963.00
2023-05-14T03:40:52.506Z,97958.00
2023-05-14T03:43:20.160Z,97969.00
2023-05-14T03:45:52.296Z,97962.00
2023-05-14T03:48:20.161Z,97958.00
2023-05-14T03:50:47.973Z,97963.00
2023-05-14T03:53:15.982Z,97966.00
2023-05-14T03:55:44.981Z,97969.00
2023-05-14T03:58:14.217Z,97970.00
2023-05-14T04:00:42.344Z,97962.00
2023-05-14T04:03:10.161Z,97971.00
2023-05-14T04:05:37.886Z,97964.00
2023-05-14T04:08:05.833Z,97968.00
2023-05-14T04:10:33.593Z,97976.00
2023-05-14T04:13:02.590Z,97967.00
2023-05-14T04:15:30.284Z,97975.00
2023-05-14T04:17:57.968Z,97969.00
2023-05-14T04:20:25.866Z,97966.00
2023-05-14T04:22:53.679Z,97970.00
2023-05-14T04:25:21.917Z,97964.00
2023-05-14T04:27:49.517Z,97970.00
2023-05-14T04:30:18.787Z,97966.00
2023-05-14T04:32:46.461Z,97968.00
2023-05-14T04:35:14.225Z,97965.00
2023-05-14T04:37:41.885Z,97962.00
2023-05-14T04:40:11.399Z,97963.00
2023-05-14T04:42:39.423Z,97964.00
2023-05-14T04:45:08.855Z,97963.00
2023-05-14T04:47:37.929Z,97954.00
2023-05-14T04:50:06.807Z,97951.00
2023-05-14T04:52:34.509Z,97959.00
2023-05-14T04:55:02.154Z,97959.00
2023-05-14T04:57:29.829Z,97958.00
2023-05-14T04:59:57.468Z,97952.00
2023-05-14T05:02:25.182Z,97951.00
2023-05-14T05:04:54.208Z,97957.00
2023-05-14T05:07:21.834Z,97951.00
2023-05-14T05:09:49.781Z,97953.00
2023-05-14T05:12:17.492Z,97945.00
2023-05-14T05:14:45.165Z,97952.00
2023-05-14T05:17:12.790Z,97951.00
2023-05-14T05:19:44.283Z,97943.00
2023-05-14T05:22:13.740Z,97941.00
2023-05-14T05:24:41.521Z,97934.00
2023-05-14T05:27:09.350Z,97935.00
2023-05-14T05:29:38.161Z,97933.00
2023-05-14T05:32:06.850Z,97935.00
2023-05-14T05:34:35.174Z,97936.00
2023-05-14T05:37:02.827Z,97936.00
2023-05-14T05:39:34.795Z,97940.00
2023-05-14T05:42:03.110Z,97944.00
2023-05-14T05:44:30.777Z,97950.00
2023-05-14T05:46:58.546Z,97948.00
2023-05-14T05:49:26.247Z,97947.00
2023-05-14T05:51:53.854Z,97946.00
2023-05-14T05:54:21.484Z,97950.00
2023-05-14T05:56:50.665Z,97936.00
2023-05-14T05:59:18.394Z,97934.00
2023-05-14T06:01:46.133Z,97939.00
2023-05-14T06:04:13.837Z,97939.00
2023-05-14T06:06:41.651Z,97941.00
2023-05-14T06:09:09.944Z,97933.00
2023-05-14T06:11:37.594Z,97936.00
2023-05-14T06:14:06.724Z,97940.00
2023-05-14T06:16:34.469Z,97945.00
2023-05-14T06:19:02.249Z,97946.00
2023-05-14T06:21:29.894Z,97956.00
2023-05-14T06:23:57.539Z,97950.00
2023-05-14T06:26:25.972Z,97949.00
2023-05-14T06:28:53.614Z,97947.00
2023-05-14T06:31:22.772Z,97950.00
2023-05-14T06:33:50.530Z,97957.00
2023-05-14T06:36:18.175Z,97950.00
2023-05-14T06:38:45.917Z,97957.00
2023-05-14T06:41:13.554Z,97944.00
2023-05-14T06:43:41.220Z,97951.00
2023-05-14T06:46:08.854Z,97958.00
2023-05-14T06:48:37.920Z,97957.00
2023-05-14T06:51:06.422Z,97947.00
2023-05-14T06:53:34.036Z,97949.00
2023-05-14T06:56:01.676Z,97947.00
2023-05-14T06:58:29.330Z,97945.00
2023-05-14T07:00:56.995Z,97943.00
2023-05-14T07:03:24.861Z,97948.00
2023-05-14T07:05:53.823Z,97951.00
2023-05-14T07:08:21.497Z,97946.00
2023-05-14T07:10:49.268Z,97939.00
2023-05-14T07:13:16.877Z,97938.00
2023-05-14T07:15:45.077Z,97946.00
2023-05-14T07:18:12.790Z,97947.00
2023-05-14T07:20:40.522Z,97937.00
2023-05-14T07:23:09.574Z,97942.00
2023-05-14T07:25:37.230Z,97941.00
2023-05-14T07:28:05.161Z,97944.00
2023-05-14T07:30:32.775Z,97939.00
2023-05-14T07:33:00.518Z,97940.00
2023-05-14T07:35:28.200Z,97939.00
2023-05-14T07:37:55.884Z,97928.00
2023-05-14T07:40:25.910Z,97919.00
2023-05-14T07:42:53.710Z,97920.00
2023-05-14T07:45:21.356Z,97927.00
2023-05-14T07:47:51.866Z,97918.00
2023-05-14T07:50:19.811Z,97924.00
2023-05-14T07:52:47.642Z,97925.00
2023-05-14T07:55:15.331Z,97921.00
2023-05-14T07:57:44.283Z,97920.00
2023-05-14T08:00:12.892Z,97922.00
2023-05-14T08:02:40.729Z,97919.00
2023-05-14T08:05:09.170Z,97920.00
2023-05-14T08:07:36.871Z,97916.00
2023-05-14T08:10:05.019Z,97919.00
2023-05-14T08:12:32.672Z,97919.00
2023-05-14T08:15:01.716Z,97919.00
2023-05-14T08:17:30.038Z,97910.00
2023-05-14T08:19:57.682Z,97915.00
2023-05-14T08:22:25.323Z,97915.00
2023-05-14T08:24:52.999Z,97917.00
2023-05-14T08:27:21.518Z,97914.00
2023-05-14T08:29:49.156Z,97911.00
2023-05-14T08:32:23.214Z,97910.00
2023-05-14T08:34:52.351Z,97908.00
2023-05-14T08:37:20.308Z,97905.00
2023-05-14T08:39:48.116Z,97906.00
2023-05-14T08:42:17.640Z,97911.00
2023-05-14T08:44:50.109Z,97904.00
2023-05-14T08:47:22.403Z,97893.00
2023-05-14T08:49:56.948Z,97893.00
2023-05-14T08:52:24.697Z,97891.00
2023-05-14T08:54:54.690Z,97899.00
2023-05-14T08:57:24.862Z,97890.00
2023-05-14T08:59:52.608Z,97887.00
2023-05-14T09:02:23.942Z,97885.00
2023-05-14T09:04:56.532Z,97892.00
2023-05-14T09:07:24.754Z,97890.00
2023-05-14T09:09:52.898Z,97886.00
2023-05-14T09:12:21.369Z,97884.00
2023-05-14T09:14:50.697Z,97887.00
2023-05-14T09:17:18.550Z,97875.00
2023-05-14T09:19:49.196Z,97887.00
2023-05-14T09:22:18.738Z,97885.00
2023-05-14T09:24:47.125Z,97883.00
2023-05-14T09:27:20.646Z,97881.00
2023-05-14T09:29:49.207Z,97877.00
2023-05-14T09:32:16.815Z,97876.00
2023-05-14T09:34:44.450Z,97885.00
2023-05-14T09:37:13.410Z,97862.00
2023-05-14T09:39:41.033Z,97871.00
2023-05-14T09:42:08.868Z,97866.00
2023-05-14T09:44:38.065Z,97867.00
2023-05-14T09:47:06.351Z,97866.00
2023-05-14T09:49:34.797Z,97856.00
2023-05-14T09:52:03.728Z,97860.00
2023-05-14T09:54:34.133Z,97850.00
2023-05-14T09:57:01.858Z,97852.00
2023-05-14T09:59:29.580Z,97852.00
2023-05-14T10:01:59.320Z,97856.00
2023-05-14T10:04:27.095Z,97858.00
2023-05-14T10:06:56.707Z,97843.00
2023-05-14T10:09:28.400Z,97843.00
2023-05-14T10:12:01.769Z,97838.00
2023-05-14T10:14:37.078Z,97838.00
2023-05-14T10:17:07.214Z,97838.00
2023-05-14T10:19:35.335Z,97836.00
2023-05-14T10:22:05.513Z,97837.00
2023-05-14T10:24:33.797Z,97831.00
2023-05-14T10:27:03.368Z,97829.00
2023-05-14T10:29:34.697Z,97833.00
2023-05-14T10:32:05.931Z,97833.00
2023-05-14T10:34:42.581Z,97827.00
2023-05-14T10:37:11.192Z,97823.00
2023-05-14T10:39:49.133Z,97820.00
2023-05-14T10:42:20.709Z,97816.00
2023-05-14T10:44:58.004Z,97812.00
2023-05-14T10:47:26.494Z,97811.00
2023-05-14T10:49:56.357Z,97807.00
2023-05-14T10:52:24.731Z,97803.00
2023-05-14T10:54:54.118Z,97801.00
2023-05-14T10:57:24.416Z,97808.00
2023-05-14T10:59:55.007Z,97802.00
2023-05-14T11:02:25.274Z,97798.00
2023-05-14T11:04:59.045Z,97789.00
2023-05-14T11:07:29.999Z,97796.00
2023-05-14T11:10:08.419Z,97799.00
2023-05-14T11:12:38.731Z,97793.00
2023-05-14T11:15:09.299Z,97791.00
2023-05-14T11:17:38.011Z,97794.00
2023-05-14T11:20:07.225Z,97791.00
2023-05-14T11:22:35.918Z,97786.00
2023-05-14T11:25:03.667Z,97787.00
2023-05-14T11:27:31.829Z,97774.00
2023-05-14T11:30:01.857Z,97782.00
2023-05-14T11:32:29.501Z,97774.00
2023-05-14T11:34:57.243Z,97783.00
2023-05-14T11:37:25.141Z,97782.00
2023-05-14T11:39:54.310Z,97781.00
2023-05-14T11:42:23.680Z,97779.00
2023-05-14T11:44:52.595Z,97776.00
2023-05-14T11:47:22.796Z,97770.00
2023-05-14T11:49:50.600Z,97773.00
2023-05-14T11:52:21.756Z,97762.00
2023-05-14T11:54:50.857Z,97767.00
2023-05-14T11:57:20.942Z,97762.00
2023-05-14T11:59:49.288Z,97760.00
2023-05-14T12:02:19.041Z,97759.00
2023-05-14T12:04:51.977Z,97757.00
2023-05-14T12:07:19.889Z,97756.00
2023-05-14T12:09:49.568Z,97755.00
2023-05-14T12:12:20.141Z,97748.00
2023-05-14T12:14:48.638Z,97748.00
2023-05-14T12:17:18.138Z,97751.00
2023-05-14T12:19:49.228Z,97743.00
2023-05-14T12:22:18.597Z,97743.00
2023-05-14T12:24:54.577Z,97744.00
2023-05-14T12:27:24.190Z,97745.00
2023-05-14T12:29:53.424Z,97743.00
2023-05-14T12:32:21.224Z,97739.00
2023-05-14T12:34:50.278Z,97737.00
2023-05-14T12:37:18.430Z,97738.00
2023-05-14T12:39:46.114Z,97735.00
2023-05-14T12:42:16.332Z,97725.00
2023-05-14T12:44:43.988Z,97732.00
2023-05-14T12:47:11.704Z,97723.00
2023-05-14T12:49:39.422Z,97719.00
2023-05-14T12:54:44.909Z,97721.00
2023-05-14T12:57:12.621Z,97718.00
2023-05-14T12:59:40.949Z,97718.00
2023-05-14T13:02:08.935Z,97721.00
2023-05-14T13:04:37.312Z,97717.00
2023-05-14T13:07:05.014Z,97714.00
2023-05-14T13:09:34.063Z,97717.00
2023-05-14T13:12:01.661Z,97718.00
2023-05-14T13:14:29.284Z,97715.00
2023-05-14T13:16:56.964Z,97703.00
2023-05-14T13:19:24.613Z,97702.00
2023-05-14T13:21:52.304Z,97698.00
2023-05-14T13:24:20.157Z,97694.00
2023-05-14T13:26:49.147Z,97688.00
2023-05-14T13:29:16.792Z,97687.00
2023-05-14T13:31:44.698Z,97687.00
2023-05-14T13:34:13.131Z,97687.00
2023-05-14T13:36:40.828Z,97677.00
2023-05-14T13:39:08.511Z,97671.00
2023-05-14T13:41:37.699Z,97679.00
2023-05-14T13:44:07.085Z,97667.00
2023-05-14T13:46:34.810Z,97665.00
2023-05-14T13:49:02.517Z,97654.00
2023-05-14T13:51:30.238Z,97660.00
2023-05-14T13:53:57.871Z,97656.00
2023-05-14T13:56:25.945Z,97655.00
2023-05-14T13:58:53.660Z,97657.00
2023-05-14T14:01:23.318Z,97646.00
2023-05-14T14:03:51.014Z,97663.00
2023-05-14T14:06:18.655Z,97646.00
2023-05-14T14:08:46.294Z,97642.00
2023-05-14T14:11:14.036Z,97639.00
2023-05-14T14:13:42.606Z,97649.00
2023-05-14T14:16:11.544Z,97640.00
2023-05-14T14:18:41.307Z,97629.00
2023-05-14T14:21:09.010Z,97633.00
2023-05-14T14:23:36.615Z,97636.00
2023-05-14T14:26:04.378Z,97627.00
2023-05-14T14:28:32.091Z,97624.00
2023-05-14T14:30:59.762Z,97624.00
2023-05-14T14:33:27.492Z,97617.00
2023-05-14T14:35:56.530Z,97617.00
2023-05-14T14:38:24.196Z,97618.00
2023-05-14T14:40:51.896Z,97618.00
2023-05-14T14:43:19.531Z,97619.00
2023-05-14T14:45:48.889Z,97623.00
2023-05-14T14:48:24.416Z,97615.00
2023-05-14T14:50:52.771Z,97617.00
2023-05-14T14:53:21.902Z,97618.00
2023-05-14T14:55:49.744Z,97607.00
2023-05-14T14:58:17.659Z,97607.00
2023-05-14T15:00:45.639Z,97604.00
2023-05-14T15:03:15.066Z,97599.00
2023-05-14T15:05:42.887Z,97603.00
2023-05-14T15:08:10.640Z,97599.00
2023-05-14T15:10:41.177Z,97604.00
2023-05-14T15:13:09.599Z,97598.00
2023-05-14T15:15:37.519Z,97597.00
2023-05-14T15:18:05.836Z,97601.00
2023-05-14T15:20:33.597Z,97602.00
2023-05-14T15:23:01.230Z,97606.00
2023-05-14T15:25:28.874Z,97603.00
2023-05-14T15:27:57.921Z,97601.00
2023-05-14T15:30:25.541Z,97601.00
2023-05-14T15:32:53.569Z,97595.00
2023-05-14T15:35:21.447Z,97594.00
2023-05-14T15:37:49.126Z,97595.00
2023-05-14T15:40:16.884Z,97600.00
2023-05-14T15:42:44.825Z,97590.00
2023-05-14T15:45:14.695Z,97595.00
2023-05-14T15:47:44.227Z,97591.00
2023-05-14T15:50:12.329Z,97607.00
2023-05-14T15:52:41.520Z,97601.00
2023-05-14T15:55:10.089Z,97604.00
2023-05-14T15:57:38.018Z,97605.00
2023-05-14T16:00:10.405Z,97599.00
2023-05-14T16:02:40.110Z,97598.00
2023-05-14T16:05:08.733Z,97604.00
2023-05-14T16:07:37.044Z,97600.00
2023-05-14T16:10:05.365Z,97597.00
2023-05-14T16:12:33.201Z,97597.00
2023-05-14T16:15:01.016Z,97605.00
2023-05-14T16:17:30.405Z,97603.00
2023-05-14T16:20:00.816Z,97598.00
2023-05-14T16:22:29.272Z,97596.00
2023-05-14T16:24:56.935Z,97601.00
2023-05-14T16:27:24.640Z,97594.00
2023-05-14T16:29:52.483Z,97600.00
2023-05-14T16:32:20.346Z,97592.00
2023-05-14T16:34:49.877Z,97597.00
2023-05-14T16:37:19.903Z,97603.00
2023-05-14T16:39:47.767Z,97598.00
2023-05-14T16:42:15.618Z,97599.00
2023-05-14T16:44:43.265Z,97601.00
2023-05-14T16:47:11.100Z,97604.00
2023-05-14T16:49:38.753Z,97595.00
2023-05-14T16:52:08.341Z,97592.00
2023-05-14T16:54:37.512Z,97599.00
2023-05-14T16:57:06.017Z,97591.00
2023-05-14T16:59:33.654Z,97596.00
2023-05-14T17:02:01.404Z,97584.00
2023-05-14T17:04:29.248Z,97586.00
2023-05-14T17:06:57.457Z,97583.00
2023-05-14T17:09:25.146Z,97583.00
2023-05-14T17:11:54.170Z,97580.00
2023-05-14T17:14:21.822Z,97588.00
2023-05-14T17:16:49.812Z,97578.00
2023-05-14T17:19:17.518Z,97586.00
2023-05-14T17:21:45.244Z,97581.00
2023-05-14T17:24:12.907Z,97583.00
2023-05-14T17:26:40.650Z,97583.00
2023-05-14T17:29:09.908Z,97585.00
2023-05-14T17:31:37.594Z,97593.00
2023-05-14T17:34:05.556Z,97589.00
2023-05-14T17:36:33.300Z,97590.00
2023-05-14T17:39:00.984Z,97589.00
2023-05-14T17:41:28.608Z,97595.00
2023-05-14T17:43:56.276Z,97590.00
2023-05-14T17:46:25.773Z,97588.00
2023-05-14T17:48:53.410Z,97586.00
2023-05-14T17:51:21.137Z,97588.00
2023-05-14T17:53:48.769Z,97584.00
2023-05-14T17:56:18.368Z,97592.00
2023-05-14T17:58:46.226Z,97585.00
2023-05-14T18:01:13.922Z,97584.00
2023-05-14T18:03:43.236Z,97590.00
2023-05-14T18:06:10.981Z,97583.00
2023-05-14T18:08:38.606Z,97590.00
2023-05-14T18:11:06.258Z,97589.00
2023-05-14T18:13:33.939Z,97593.00
2023-05-14T18:16:01.705Z,97593.00
2023-05-14T18:18:29.388Z,97604.00
2023-05-14T18:20:58.441Z,97604.00
2023-05-14T18:23:26.305Z,97606.00
2023-05-14T18:25:54.244Z,97607.00
2023-05-14T18:28:21.977Z,97607.00
2023-05-14T18:30:50.276Z,97613.00
2023-05-14T18:33:18.105Z,97609.00
2023-05-14T18:35:45.826Z,97605.00
2023-05-14T18:38:17.771Z,97621.00
2023-05-14T18:40:45.468Z,97622.00
2023-05-14T18:43:13.527Z,97625.00
2023-05-14T18:45:41.236Z,97615.00
2023-05-14T18:48:09.208Z,97617.00
2023-05-14T18:50:39.191Z,97619.00
2023-05-14T18:53:07.553Z,97629.00
2023-05-14T18:55:37.147Z,97625.00
2023-05-14T18:58:04.849Z,97622.00
2023-05-14T19:00:32.751Z,97626.00
2023-05-14T19:03:00.459Z,97636.00
2023-05-14T19:05:28.192Z,97637.00
2023-05-14T19:07:56.028Z,97638.00
2023-05-14T19:10:23.658Z,97631.00
2023-05-14T19:12:52.658Z,97633.00
2023-05-14T19:15:20.347Z,97634.00
2023-05-14T19:17:48.087Z,97635.00
2023-05-14T19:20:15.845Z,97631.00
2023-05-14T19:22:43.485Z,97633.00
2023-05-14T19:25:12.232Z,97637.00
2023-05-14T19:27:40.047Z,97647.00
2023-05-14T19:30:10.193Z,97642.00
2023-05-14T19:32:38.194Z,97653.00
2023-05-14T19:35:06.690Z,97659.00
2023-05-14T19:37:34.432Z,97653.00
2023-05-14T19:40:02.078Z,97648.00
2023-05-14T19:42:30.612Z,97647.00
2023-05-14T19:44:58.336Z,97647.00
2023-05-14T19:47:28.649Z,97635.00
2023-05-14T19:49:56.679Z,97636.00
2023-05-14T19:52:24.316Z,97636.00
2023-05-14T19:54:51.966Z,97641.00
2023-05-14T19:57:19.719Z,97634.00
2023-05-14T19:59:47.550Z,97635.00
2023-05-14T20:02:18.361Z,97636.00
2023-05-14T20:04:47.636Z,97636.00
2023-05-14T20:07:16.083Z,97637.00
2023-05-14T20:09:43.753Z,97633.00
2023-05-14T20:12:12.908Z,97637.00
2023-05-14T20:14:42.758Z,97646.00
2023-05-14T20:17:10.791Z,97648.00
2023-05-14T20:19:38.681Z,97642.00
2023-05-14T20:22:07.770Z,97653.00
2023-05-14T20:24:35.546Z,97646.00
2023-05-14T20:27:03.486Z,97650.00
2023-05-14T20:29:31.185Z,97646.00
2023-05-14T20:31:58.885Z,97643.00
2023-05-14T20:34:26.474Z,97644.00
2023-05-14T20:36:54.250Z,97640.00
2023-05-14T20:39:23.194Z,97635.00
2023-05-14T20:41:50.837Z,97639.00
2023-05-14T20:44:19.901Z,97640.00
2023-05-14T20:46:48.438Z,97631.00
2023-05-14T20:49:16.156Z,97625.00
2023-05-14T20:51:43.835Z,97623.00
2023-05-14T20:54:11.473Z,97620.00
2023-05-14T20:56:40.501Z,97619.00
2023-05-14T20:59:08.240Z,97622.00
2023-05-14T21:01:35.921Z,97628.00
2023-05-14T21:04:03.725Z,97616.00
2023-05-14T21:06:31.500Z,97616.00
2023-05-14T21:08:59.171Z,97619.00
2023-05-14T21:11:26.812Z,97627.00
2023-05-14T21:13:55.782Z,97622.00
2023-05-14T21:16:23.836Z,97620.00
2023-05-14T21:18:51.597Z,97614.00
2023-05-14T21:21:19.280Z,97623.00
2023-05-14T21:23:46.955Z,97625.00
2023-05-14T21:26:14.683Z,97635.00
2023-05-14T21:28:42.373Z,97631.00
2023-05-14T21:31:11.417Z,97631.00
2023-05-14T21:33:40.744Z,97639.00
2023-05-14T21:36:09.202Z,97637.00
2023-05-14T21:38:36.886Z,97630.00
2023-05-14T21:41:04.598Z,97625.00
2023-05-14T21:43:32.389Z,97624.00
2023-05-14T21:46:00.073Z,97619.00
2023-05-14T21:48:29.740Z,97615.00
2023-05-14T21:50:57.419Z,97605.00
2023-05-14T21:53:25.078Z,97601.00
2023-05-14T21:55:52.793Z,97604.00
2023-05-14T21:58:20.433Z,97607.00
2023-05-14T22:00:48.097Z,97607.00
2023-05-14T22:03:16.007Z,97607.00
2023-05-14T22:05:45.087Z,97609.00
2023-05-14T22:08:12.746Z,97608.00
2023-05-14T22:10:40.860Z,97614.00
2023-05-14T22:13:08.484Z,97621.00
2023-05-14T22:15:36.185Z,97623.00
2023-05-14T22:18:04.527Z,97620.00
2023-05-14T22:20:32.304Z,97614.00
2023-05-14T22:23:01.377Z,97609.00
2023-05-14T22:25:29.120Z,97615.00
2023-05-14T22:27:56.766Z,97610.00
2023-05-14T22:30:24.806Z,97605.00
2023-05-14T22:32:52.506Z,97604.00
2023-05-14T22:35:20.127Z,97600.00
2023-05-14T22:37:47.792Z,97596.00
2023-05-14T22:40:16.795Z,97598.00
2023-05-14T22:42:44.456Z,97597.00
2023-05-14T22:45:12.404Z,97590.00
2023-05-14T22:47:40.161Z,97590.00
2023-05-14T22:50:11.486Z,97592.00
2023-05-14T22:52:39.308Z,97590.00
2023-05-14T22:55:08.170Z,97589.00
2023-05-14T22:57:37.167Z,97584.00
2023-05-14T23:00:05.730Z,97580.00
2023-05-14T23:02:33.404Z,97574.00
2023-05-14T23:05:01.108Z,97570.00
2023-05-14T23:07:28.759Z,97573.00
2023-05-14T23:09:56.438Z,97570.00
2023-05-14T23:12:24.104Z,97565.00
2023-05-14T23:14:53.169Z,97565.00
2023-05-14T23:17:20.836Z,97560.00
2023-05-14T23:19:48.561Z,97564.00
2023-05-14T23:22:16.216Z,97558.00
2023-05-14T23:24:43.908Z,97566.00
2023-05-14T23:27:12.136Z,97563.00
2023-05-14T23:29:39.765Z,97558.00
2023-05-14T23:32:09.443Z,97559.00
2023-05-14T23:34:37.173Z,97545.00
2023-05-14T23:37:04.957Z,97547.00
2023-05-14T23:39:32.856Z,97546.00
2023-05-14T23:42:00.555Z,97548.00
2023-05-14T23:44:28.265Z,97534.00
2023-05-14T23:46:55.991Z,97532.00
2023-05-14T23:49:25.205Z,97534.00
2023-05-14T23:51:52.892Z,97533.00
2023-05-14T23:54:20.624Z,97535.00
2023-05-14T23:56:48.310Z,97528.00
2023-05-14T23:59:15.919Z,97518.00
